sensor_id;sensor_type;location;lat;lon;timestamp;P1;durP1;ratioP1;P2;durP2;ratioP2
79583;SDS011;69053;57.338;18.700;2023-04-25T00:04:41;35.25;;;16.20;;
79583;SDS011;69053;57.338;18.700;2023-04-25T00:09:42;41.22;;;18.08;;
79583;SDS011;69053;57.338;18.700;2023-04-25T00:14:42;37.78;;;16.55;;
79583;SDS011;69053;57.338;18.700;2023-04-25T00:19:44;44.03;;;16.52;;
79583;SDS011;69053;57.338;18.700;2023-04-25T00:24:46;42.55;;;15.88;;
79583;SDS011;69053;57.338;18.700;2023-04-25T00:29:47;42.65;;;16.10;;
79583;SDS011;69053;57.338;18.700;2023-04-25T00:34:48;39.38;;;16.52;;
79583;SDS011;69053;57.338;18.700;2023-04-25T00:39:48;57.97;;;16.80;;
79583;SDS011;69053;57.338;18.700;2023-04-25T00:44:49;44.90;;;15.93;;
79583;SDS011;69053;57.338;18.700;2023-04-25T00:49:50;38.35;;;15.18;;
79583;SDS011;69053;57.338;18.700;2023-04-25T00:54:51;45.25;;;17.38;;
79583;SDS011;69053;57.338;18.700;2023-04-25T00:59:51;48.00;;;16.33;;
79583;SDS011;69053;57.338;18.700;2023-04-25T01:04:53;50.45;;;15.23;;
79583;SDS011;69053;57.338;18.700;2023-04-25T01:09:53;38.20;;;14.30;;
79583;SDS011;69053;57.338;18.700;2023-04-25T01:14:54;47.05;;;14.30;;
79583;SDS011;69053;57.338;18.700;2023-04-25T01:19:55;57.80;;;13.70;;
79583;SDS011;69053;57.338;18.700;2023-04-25T01:24:55;62.63;;;14.13;;
79583;SDS011;69053;57.338;18.700;2023-04-25T01:29:56;57.47;;;13.90;;
79583;SDS011;69053;57.338;18.700;2023-04-25T01:34:57;54.28;;;13.00;;
79583;SDS011;69053;57.338;18.700;2023-04-25T01:39:57;88.85;;;14.38;;
79583;SDS011;69053;57.338;18.700;2023-04-25T01:44:58;27.92;;;10.30;;
79583;SDS011;69053;57.338;18.700;2023-04-25T01:49:59;31.60;;;9.45;;
79583;SDS011;69053;57.338;18.700;2023-04-25T01:54:59;48.13;;;12.82;;
79583;SDS011;69053;57.338;18.700;2023-04-25T02:00:03;26.60;;;9.18;;
79583;SDS011;69053;57.338;18.700;2023-04-25T02:05:06;24.98;;;8.73;;
79583;SDS011;69053;57.338;18.700;2023-04-25T02:10:07;30.98;;;8.77;;
79583;SDS011;69053;57.338;18.700;2023-04-25T02:15:08;32.63;;;9.90;;
79583;SDS011;69053;57.338;18.700;2023-04-25T02:20:09;26.23;;;8.68;;
79583;SDS011;69053;57.338;18.700;2023-04-25T02:25:10;40.88;;;10.50;;
79583;SDS011;69053;57.338;18.700;2023-04-25T02:30:11;34.53;;;8.60;;
79583;SDS011;69053;57.338;18.700;2023-04-25T02:35:12;25.15;;;8.93;;
79583;SDS011;69053;57.338;18.700;2023-04-25T02:40:13;26.05;;;9.05;;
79583;SDS011;69053;57.338;18.700;2023-04-25T02:45:13;38.38;;;10.23;;
79583;SDS011;69053;57.338;18.700;2023-04-25T02:50:14;32.40;;;8.77;;
79583;SDS011;69053;57.338;18.700;2023-04-25T02:55:15;29.02;;;9.05;;
79583;SDS011;69053;57.338;18.700;2023-04-25T03:00:16;31.60;;;8.73;;
79583;SDS011;69053;57.338;18.700;2023-04-25T03:05:17;30.27;;;10.65;;
79583;SDS011;69053;57.338;18.700;2023-04-25T03:10:17;17.58;;;8.00;;
79583;SDS011;69053;57.338;18.700;2023-04-25T03:15:18;17.65;;;7.07;;
79583;SDS011;69053;57.338;18.700;2023-04-25T03:20:19;17.92;;;7.75;;
79583;SDS011;69053;57.338;18.700;2023-04-25T03:25:20;14.52;;;7.07;;
79583;SDS011;69053;57.338;18.700;2023-04-25T03:30:21;14.23;;;6.88;;
79583;SDS011;69053;57.338;18.700;2023-04-25T03:35:21;14.75;;;7.30;;
79583;SDS011;69053;57.338;18.700;2023-04-25T03:40:23;16.25;;;7.55;;
79583;SDS011;69053;57.338;18.700;2023-04-25T03:45:24;14.05;;;7.38;;
79583;SDS011;69053;57.338;18.700;2023-04-25T03:50:25;13.85;;;7.40;;
79583;SDS011;69053;57.338;18.700;2023-04-25T03:55:25;14.77;;;8.02;;
79583;SDS011;69053;57.338;18.700;2023-04-25T04:00:26;15.90;;;7.50;;
79583;SDS011;69053;57.338;18.700;2023-04-25T04:05:27;14.60;;;6.28;;
79583;SDS011;69053;57.338;18.700;2023-04-25T04:10:27;15.80;;;7.28;;
79583;SDS011;69053;57.338;18.700;2023-04-25T04:15:28;12.18;;;5.78;;
79583;SDS011;69053;57.338;18.700;2023-04-25T04:20:29;10.35;;;5.40;;
79583;SDS011;69053;57.338;18.700;2023-04-25T04:25:30;12.02;;;6.10;;
79583;SDS011;69053;57.338;18.700;2023-04-25T04:30:31;10.25;;;6.57;;
79583;SDS011;69053;57.338;18.700;2023-04-25T04:35:33;10.63;;;5.63;;
79583;SDS011;69053;57.338;18.700;2023-04-25T04:40:33;10.38;;;5.45;;
79583;SDS011;69053;57.338;18.700;2023-04-25T04:45:34;10.40;;;4.85;;
79583;SDS011;69053;57.338;18.700;2023-04-25T04:50:35;11.65;;;6.63;;
79583;SDS011;69053;57.338;18.700;2023-04-25T04:55:36;10.05;;;5.40;;
79583;SDS011;69053;57.338;18.700;2023-04-25T05:00:37;10.43;;;6.10;;
79583;SDS011;69053;57.338;18.700;2023-04-25T05:05:38;11.52;;;6.18;;
79583;SDS011;69053;57.338;18.700;2023-04-25T05:10:40;10.73;;;5.82;;
79583;SDS011;69053;57.338;18.700;2023-04-25T05:15:41;9.40;;;5.10;;
79583;SDS011;69053;57.338;18.700;2023-04-25T05:20:42;11.23;;;5.85;;
79583;SDS011;69053;57.338;18.700;2023-04-25T05:25:43;11.93;;;6.30;;
79583;SDS011;69053;57.338;18.700;2023-04-25T05:30:43;11.38;;;5.80;;
79583;SDS011;69053;57.338;18.700;2023-04-25T05:35:43;8.93;;;5.03;;
79583;SDS011;69053;57.338;18.700;2023-04-25T05:40:44;8.20;;;4.32;;
79583;SDS011;69053;57.338;18.700;2023-04-25T05:45:45;10.32;;;4.97;;
79583;SDS011;69053;57.338;18.700;2023-04-25T05:50:46;8.38;;;4.90;;
79583;SDS011;69053;57.338;18.700;2023-04-25T05:55:47;15.45;;;7.07;;
79583;SDS011;69053;57.338;18.700;2023-04-25T06:00:47;21.00;;;8.73;;
79583;SDS011;69053;57.338;18.700;2023-04-25T06:05:48;26.67;;;7.63;;
79583;SDS011;69053;57.338;18.700;2023-04-25T06:10:48;26.13;;;7.22;;
79583;SDS011;69053;57.338;18.700;2023-04-25T06:15:49;13.88;;;6.00;;
79583;SDS011;69053;57.338;18.700;2023-04-25T06:20:49;16.52;;;6.88;;
79583;SDS011;69053;57.338;18.700;2023-04-25T06:25:50;11.85;;;5.85;;
79583;SDS011;69053;57.338;18.700;2023-04-25T06:30:51;10.95;;;5.47;;
79583;SDS011;69053;57.338;18.700;2023-04-25T06:35:51;9.10;;;4.75;;
79583;SDS011;69053;57.338;18.700;2023-04-25T06:40:52;9.35;;;5.18;;
79583;SDS011;69053;57.338;18.700;2023-04-25T06:45:53;9.88;;;5.38;;
79583;SDS011;69053;57.338;18.700;2023-04-25T06:50:54;9.90;;;4.82;;
79583;SDS011;69053;57.338;18.700;2023-04-25T06:55:54;9.05;;;5.78;;
79583;SDS011;69053;57.338;18.700;2023-04-25T07:00:55;10.40;;;6.47;;
79583;SDS011;69053;57.338;18.700;2023-04-25T07:05:55;7.43;;;5.18;;
79583;SDS011;69053;57.338;18.700;2023-04-25T07:10:56;7.20;;;4.68;;
79583;SDS011;69053;57.338;18.700;2023-04-25T07:15:56;8.00;;;4.68;;
79583;SDS011;69053;57.338;18.700;2023-04-25T07:20:57;7.47;;;5.00;;
79583;SDS011;69053;57.338;18.700;2023-04-25T07:25:57;7.30;;;4.85;;
79583;SDS011;69053;57.338;18.700;2023-04-25T07:30:58;6.75;;;4.93;;
79583;SDS011;69053;57.338;18.700;2023-04-25T07:35:59;6.68;;;4.93;;
79583;SDS011;69053;57.338;18.700;2023-04-25T07:40:59;5.25;;;4.43;;
79583;SDS011;69053;57.338;18.700;2023-04-25T07:46:00;6.30;;;4.93;;
79583;SDS011;69053;57.338;18.700;2023-04-25T07:51:00;5.70;;;4.32;;
79583;SDS011;69053;57.338;18.700;2023-04-25T07:56:01;7.63;;;5.63;;
79583;SDS011;69053;57.338;18.700;2023-04-25T08:01:02;7.68;;;5.28;;
79583;SDS011;69053;57.338;18.700;2023-04-25T08:06:03;9.27;;;5.72;;
79583;SDS011;69053;57.338;18.700;2023-04-25T08:11:03;9.00;;;6.05;;
79583;SDS011;69053;57.338;18.700;2023-04-25T08:16:04;9.30;;;5.80;;
79583;SDS011;69053;57.338;18.700;2023-04-25T08:21:04;10.57;;;6.15;;
79583;SDS011;69053;57.338;18.700;2023-04-25T08:26:06;9.43;;;5.97;;
79583;SDS011;69053;57.338;18.700;2023-04-25T08:31:07;12.15;;;6.60;;
79583;SDS011;69053;57.338;18.700;2023-04-25T08:36:07;11.88;;;6.78;;
79583;SDS011;69053;57.338;18.700;2023-04-25T08:41:08;11.60;;;6.53;;
79583;SDS011;69053;57.338;18.700;2023-04-25T08:46:12;12.70;;;6.35;;
79583;SDS011;69053;57.338;18.700;2023-04-25T08:51:23;10.45;;;6.00;;
79583;SDS011;69053;57.338;18.700;2023-04-25T08:56:25;13.68;;;6.97;;
79583;SDS011;69053;57.338;18.700;2023-04-25T09:01:26;14.15;;;8.25;;
79583;SDS011;69053;57.338;18.700;2023-04-25T09:06:30;13.70;;;8.18;;
79583;SDS011;69053;57.338;18.700;2023-04-25T09:11:32;14.80;;;7.93;;
79583;SDS011;69053;57.338;18.700;2023-04-25T09:16:33;14.43;;;8.63;;
79583;SDS011;69053;57.338;18.700;2023-04-25T09:21:34;14.02;;;8.40;;
79583;SDS011;69053;57.338;18.700;2023-04-25T09:26:34;14.73;;;9.00;;
79583;SDS011;69053;57.338;18.700;2023-04-25T09:31:56;14.60;;;7.75;;
79583;SDS011;69053;57.338;18.700;2023-04-25T09:37:20;11.57;;;6.68;;
79583;SDS011;69053;57.338;18.700;2023-04-25T09:42:22;9.80;;;5.53;;
79583;SDS011;69053;57.338;18.700;2023-04-25T09:47:25;7.88;;;4.32;;
79583;SDS011;69053;57.338;18.700;2023-04-25T09:52:26;4.00;;;2.08;;
79583;SDS011;69053;57.338;18.700;2023-04-25T09:57:27;5.63;;;3.03;;
79583;SDS011;69053;57.338;18.700;2023-04-25T10:02:27;4.70;;;3.30;;
79583;SDS011;69053;57.338;18.700;2023-04-25T10:07:29;3.47;;;2.33;;
79583;SDS011;69053;57.338;18.700;2023-04-25T10:12:32;5.55;;;2.85;;
79583;SDS011;69053;57.338;18.700;2023-04-25T10:17:33;2.95;;;1.80;;
79583;SDS011;69053;57.338;18.700;2023-04-25T10:22:35;2.30;;;1.92;;
79583;SDS011;69053;57.338;18.700;2023-04-25T10:27:42;2.83;;;2.00;;
79583;SDS011;69053;57.338;18.700;2023-04-25T10:32:43;3.30;;;1.80;;
79583;SDS011;69053;57.338;18.700;2023-04-25T10:38:02;3.22;;;1.50;;
79583;SDS011;69053;57.338;18.700;2023-04-25T10:48:54;2.88;;;1.63;;
79583;SDS011;69053;57.338;18.700;2023-04-25T10:59:06;1.67;;;1.15;;
79583;SDS011;69053;57.338;18.700;2023-04-25T11:04:22;1.83;;;0.82;;
79583;SDS011;69053;57.338;18.700;2023-04-25T11:09:25;1.88;;;1.10;;
79583;SDS011;69053;57.338;18.700;2023-04-25T11:14:26;1.90;;;1.02;;
79583;SDS011;69053;57.338;18.700;2023-04-25T11:19:27;1.30;;;0.75;;
79583;SDS011;69053;57.338;18.700;2023-04-25T11:24:29;2.28;;;0.82;;
79583;SDS011;69053;57.338;18.700;2023-04-25T11:29:32;1.95;;;0.80;;
79583;SDS011;69053;57.338;18.700;2023-04-25T11:34:34;2.70;;;0.82;;
79583;SDS011;69053;57.338;18.700;2023-04-25T11:39:34;1.77;;;1.00;;
79583;SDS011;69053;57.338;18.700;2023-04-25T11:44:35;3.20;;;2.03;;
79583;SDS011;69053;57.338;18.700;2023-04-25T11:49:38;4.57;;;2.13;;
79583;SDS011;69053;57.338;18.700;2023-04-25T11:54:39;7.95;;;2.83;;
79583;SDS011;69053;57.338;18.700;2023-04-25T11:59:39;5.10;;;2.65;;
79583;SDS011;69053;57.338;18.700;2023-04-25T12:04:40;6.38;;;2.25;;
79583;SDS011;69053;57.338;18.700;2023-04-25T12:09:41;4.20;;;2.47;;
79583;SDS011;69053;57.338;18.700;2023-04-25T12:14:47;8.05;;;3.35;;
79583;SDS011;69053;57.338;18.700;2023-04-25T12:19:51;5.03;;;2.58;;
79583;SDS011;69053;57.338;18.700;2023-04-25T12:24:51;6.28;;;2.47;;
79583;SDS011;69053;57.338;18.700;2023-04-25T12:29:54;4.70;;;2.47;;
79583;SDS011;69053;57.338;18.700;2023-04-25T12:34:56;6.82;;;2.22;;
79583;SDS011;69053;57.338;18.700;2023-04-25T12:39:56;4.30;;;1.67;;
79583;SDS011;69053;57.338;18.700;2023-04-25T12:44:57;3.40;;;1.67;;
79583;SDS011;69053;57.338;18.700;2023-04-25T12:49:57;3.70;;;1.85;;
79583;SDS011;69053;57.338;18.700;2023-04-25T12:54:58;5.50;;;2.15;;
79583;SDS011;69053;57.338;18.700;2023-04-25T12:59:59;12.07;;;2.60;;
79583;SDS011;69053;57.338;18.700;2023-04-25T13:04:59;4.43;;;1.70;;
79583;SDS011;69053;57.338;18.700;2023-04-25T13:10:00;5.70;;;1.95;;
79583;SDS011;69053;57.338;18.700;2023-04-25T13:15:02;4.32;;;1.60;;
79583;SDS011;69053;57.338;18.700;2023-04-25T13:20:04;9.07;;;2.10;;
79583;SDS011;69053;57.338;18.700;2023-04-25T13:25:09;7.13;;;2.10;;
79583;SDS011;69053;57.338;18.700;2023-04-25T13:30:10;6.00;;;2.50;;
79583;SDS011;69053;57.338;18.700;2023-04-25T13:35:11;6.75;;;2.65;;
79583;SDS011;69053;57.338;18.700;2023-04-25T13:40:13;8.02;;;2.28;;
79583;SDS011;69053;57.338;18.700;2023-04-25T13:45:14;6.72;;;2.75;;
79583;SDS011;69053;57.338;18.700;2023-04-25T13:50:15;6.03;;;1.85;;
79583;SDS011;69053;57.338;18.700;2023-04-25T13:55:16;5.10;;;1.88;;
79583;SDS011;69053;57.338;18.700;2023-04-25T14:00:16;4.50;;;2.00;;
79583;SDS011;69053;57.338;18.700;2023-04-25T14:05:17;6.90;;;2.20;;
79583;SDS011;69053;57.338;18.700;2023-04-25T14:10:18;6.20;;;2.08;;
79583;SDS011;69053;57.338;18.700;2023-04-25T14:15:18;4.20;;;2.30;;
79583;SDS011;69053;57.338;18.700;2023-04-25T14:20:20;7.80;;;2.28;;
79583;SDS011;69053;57.338;18.700;2023-04-25T14:25:21;6.00;;;2.17;;
79583;SDS011;69053;57.338;18.700;2023-04-25T14:30:22;5.63;;;2.05;;
79583;SDS011;69053;57.338;18.700;2023-04-25T14:35:23;6.82;;;2.33;;
79583;SDS011;69053;57.338;18.700;2023-04-25T14:40:23;6.13;;;2.15;;
79583;SDS011;69053;57.338;18.700;2023-04-25T14:45:24;8.60;;;2.60;;
79583;SDS011;69053;57.338;18.700;2023-04-25T14:50:25;6.93;;;2.67;;
79583;SDS011;69053;57.338;18.700;2023-04-25T14:55:26;5.53;;;2.22;;
79583;SDS011;69053;57.338;18.700;2023-04-25T15:00:27;11.70;;;3.17;;
79583;SDS011;69053;57.338;18.700;2023-04-25T15:05:28;7.20;;;2.85;;
79583;SDS011;69053;57.338;18.700;2023-04-25T15:10:28;10.93;;;2.35;;
79583;SDS011;69053;57.338;18.700;2023-04-25T15:15:29;8.73;;;2.25;;
79583;SDS011;69053;57.338;18.700;2023-04-25T15:20:30;7.88;;;2.22;;
79583;SDS011;69053;57.338;18.700;2023-04-25T15:25:31;5.90;;;2.55;;
79583;SDS011;69053;57.338;18.700;2023-04-25T15:30:31;7.95;;;3.60;;
79583;SDS011;69053;57.338;18.700;2023-04-25T15:35:32;8.40;;;2.90;;
79583;SDS011;69053;57.338;18.700;2023-04-25T15:40:32;9.10;;;3.38;;
79583;SDS011;69053;57.338;18.700;2023-04-25T15:45:33;7.60;;;3.00;;
79583;SDS011;69053;57.338;18.700;2023-04-25T15:50:36;8.95;;;3.08;;
79583;SDS011;69053;57.338;18.700;2023-04-25T15:55:37;7.05;;;2.28;;
79583;SDS011;69053;57.338;18.700;2023-04-25T16:00:38;8.48;;;3.03;;
79583;SDS011;69053;57.338;18.700;2023-04-25T16:05:39;12.30;;;2.85;;
79583;SDS011;69053;57.338;18.700;2023-04-25T16:10:40;7.90;;;3.45;;
79583;SDS011;69053;57.338;18.700;2023-04-25T16:15:41;7.20;;;2.97;;
79583;SDS011;69053;57.338;18.700;2023-04-25T16:20:41;7.93;;;2.95;;
79583;SDS011;69053;57.338;18.700;2023-04-25T16:25:42;8.88;;;3.10;;
79583;SDS011;69053;57.338;18.700;2023-04-25T16:30:43;7.20;;;3.10;;
79583;SDS011;69053;57.338;18.700;2023-04-25T16:35:43;15.25;;;4.45;;
79583;SDS011;69053;57.338;18.700;2023-04-25T16:40:44;12.10;;;3.20;;
79583;SDS011;69053;57.338;18.700;2023-04-25T16:45:44;13.57;;;3.35;;
79583;SDS011;69053;57.338;18.700;2023-04-25T16:50:45;9.32;;;3.95;;
79583;SDS011;69053;57.338;18.700;2023-04-25T16:55:46;16.35;;;5.68;;
79583;SDS011;69053;57.338;18.700;2023-04-25T17:00:49;7.38;;;3.80;;
79583;SDS011;69053;57.338;18.700;2023-04-25T17:05:53;13.85;;;3.92;;
79583;SDS011;69053;57.338;18.700;2023-04-25T17:10:59;8.25;;;3.10;;
79583;SDS011;69053;57.338;18.700;2023-04-25T17:16:00;10.48;;;3.30;;
79583;SDS011;69053;57.338;18.700;2023-04-25T17:21:01;13.15;;;3.97;;
79583;SDS011;69053;57.338;18.700;2023-04-25T17:26:03;12.75;;;3.42;;
79583;SDS011;69053;57.338;18.700;2023-04-25T17:31:03;9.63;;;3.60;;
79583;SDS011;69053;57.338;18.700;2023-04-25T17:36:04;9.95;;;3.97;;
79583;SDS011;69053;57.338;18.700;2023-04-25T17:41:06;8.93;;;3.72;;
79583;SDS011;69053;57.338;18.700;2023-04-25T17:46:08;12.27;;;3.53;;
79583;SDS011;69053;57.338;18.700;2023-04-25T17:51:09;8.20;;;3.70;;
79583;SDS011;69053;57.338;18.700;2023-04-25T17:56:09;11.23;;;3.95;;
79583;SDS011;69053;57.338;18.700;2023-04-25T18:01:10;6.82;;;3.80;;
79583;SDS011;69053;57.338;18.700;2023-04-25T18:06:10;9.32;;;4.47;;
79583;SDS011;69053;57.338;18.700;2023-04-25T18:11:11;9.30;;;3.67;;
79583;SDS011;69053;57.338;18.700;2023-04-25T18:16:12;6.72;;;3.90;;
79583;SDS011;69053;57.338;18.700;2023-04-25T18:21:12;11.35;;;4.60;;
79583;SDS011;69053;57.338;18.700;2023-04-25T18:26:13;9.68;;;4.78;;
79583;SDS011;69053;57.338;18.700;2023-04-25T18:31:14;15.85;;;5.63;;
79583;SDS011;69053;57.338;18.700;2023-04-25T18:36:16;12.35;;;4.53;;
79583;SDS011;69053;57.338;18.700;2023-04-25T18:41:16;11.57;;;3.92;;
79583;SDS011;69053;57.338;18.700;2023-04-25T18:46:17;9.88;;;3.95;;
79583;SDS011;69053;57.338;18.700;2023-04-25T18:51:21;13.82;;;4.60;;
79583;SDS011;69053;57.338;18.700;2023-04-25T18:56:31;13.88;;;5.25;;
79583;SDS011;69053;57.338;18.700;2023-04-25T19:01:32;13.80;;;4.85;;
79583;SDS011;69053;57.338;18.700;2023-04-25T19:06:33;11.35;;;4.80;;
79583;SDS011;69053;57.338;18.700;2023-04-25T19:11:34;12.05;;;4.97;;
79583;SDS011;69053;57.338;18.700;2023-04-25T19:16:34;15.30;;;6.28;;
79583;SDS011;69053;57.338;18.700;2023-04-25T19:21:37;13.07;;;4.93;;
79583;SDS011;69053;57.338;18.700;2023-04-25T19:26:38;14.52;;;4.75;;
79583;SDS011;69053;57.338;18.700;2023-04-25T19:31:39;12.68;;;4.50;;
79583;SDS011;69053;57.338;18.700;2023-04-25T19:36:41;13.05;;;4.28;;
79583;SDS011;69053;57.338;18.700;2023-04-25T19:41:42;11.63;;;4.70;;
79583;SDS011;69053;57.338;18.700;2023-04-25T19:46:43;13.98;;;5.35;;
79583;SDS011;69053;57.338;18.700;2023-04-25T19:51:45;14.63;;;5.50;;
79583;SDS011;69053;57.338;18.700;2023-04-25T19:56:46;13.60;;;5.30;;
79583;SDS011;69053;57.338;18.700;2023-04-25T20:01:46;15.18;;;4.30;;
79583;SDS011;69053;57.338;18.700;2023-04-25T20:06:47;10.57;;;5.22;;
79583;SDS011;69053;57.338;18.700;2023-04-25T20:11:47;15.40;;;4.88;;
79583;SDS011;69053;57.338;18.700;2023-04-25T20:16:48;11.13;;;4.53;;
79583;SDS011;69053;57.338;18.700;2023-04-25T20:21:48;14.55;;;5.07;;
79583;SDS011;69053;57.338;18.700;2023-04-25T20:26:49;13.35;;;4.85;;
79583;SDS011;69053;57.338;18.700;2023-04-25T20:31:50;11.30;;;4.38;;
79583;SDS011;69053;57.338;18.700;2023-04-25T20:36:52;11.30;;;4.05;;
79583;SDS011;69053;57.338;18.700;2023-04-25T20:41:52;11.88;;;4.30;;
79583;SDS011;69053;57.338;18.700;2023-04-25T20:46:54;10.32;;;4.38;;
79583;SDS011;69053;57.338;18.700;2023-04-25T20:51:55;13.18;;;4.18;;
79583;SDS011;69053;57.338;18.700;2023-04-25T20:56:56;10.70;;;4.30;;
79583;SDS011;69053;57.338;18.700;2023-04-25T21:01:56;11.07;;;4.00;;
79583;SDS011;69053;57.338;18.700;2023-04-25T21:06:57;16.55;;;4.65;;
79583;SDS011;69053;57.338;18.700;2023-04-25T21:11:59;9.38;;;3.80;;
79583;SDS011;69053;57.338;18.700;2023-04-25T21:17:03;10.95;;;3.45;;
79583;SDS011;69053;57.338;18.700;2023-04-25T21:22:04;9.30;;;3.85;;
79583;SDS011;69053;57.338;18.700;2023-04-25T21:27:04;13.73;;;4.28;;
79583;SDS011;69053;57.338;18.700;2023-04-25T21:32:05;13.50;;;4.93;;
79583;SDS011;69053;57.338;18.700;2023-04-25T21:37:06;13.30;;;3.88;;
79583;SDS011;69053;57.338;18.700;2023-04-25T21:42:07;10.38;;;4.22;;
79583;SDS011;69053;57.338;18.700;2023-04-25T21:47:13;10.13;;;4.13;;
79583;SDS011;69053;57.338;18.700;2023-04-25T21:52:13;13.07;;;3.72;;
79583;SDS011;69053;57.338;18.700;2023-04-25T21:57:14;10.90;;;3.58;;
79583;SDS011;69053;57.338;18.700;2023-04-25T22:02:15;8.80;;;2.97;;
79583;SDS011;69053;57.338;18.700;2023-04-25T22:07:16;7.70;;;3.40;;
79583;SDS011;69053;57.338;18.700;2023-04-25T22:12:16;10.18;;;4.22;;
79583;SDS011;69053;57.338;18.700;2023-04-25T22:17:17;11.77;;;3.72;;
79583;SDS011;69053;57.338;18.700;2023-04-25T22:22:18;12.68;;;3.50;;
79583;SDS011;69053;57.338;18.700;2023-04-25T22:27:18;9.15;;;3.03;;
79583;SDS011;69053;57.338;18.700;2023-04-25T22:32:19;6.32;;;3.65;;
79583;SDS011;69053;57.338;18.700;2023-04-25T22:37:19;6.57;;;3.15;;
79583;SDS011;69053;57.338;18.700;2023-04-25T22:42:20;11.27;;;3.90;;
79583;SDS011;69053;57.338;18.700;2023-04-25T22:47:21;7.97;;;3.40;;
79583;SDS011;69053;57.338;18.700;2023-04-25T22:52:23;8.85;;;3.15;;
79583;SDS011;69053;57.338;18.700;2023-04-25T22:57:24;9.07;;;3.58;;
79583;SDS011;69053;57.338;18.700;2023-04-25T23:02:24;6.28;;;3.40;;
79583;SDS011;69053;57.338;18.700;2023-04-25T23:07:26;7.63;;;3.35;;
79583;SDS011;69053;57.338;18.700;2023-04-25T23:12:28;7.45;;;3.20;;
79583;SDS011;69053;57.338;18.700;2023-04-25T23:17:28;7.57;;;3.30;;
79583;SDS011;69053;57.338;18.700;2023-04-25T23:22:29;6.13;;;3.22;;
79583;SDS011;69053;57.338;18.700;2023-04-25T23:27:29;5.35;;;2.50;;
79583;SDS011;69053;57.338;18.700;2023-04-25T23:38:55;8.73;;;3.05;;
79583;SDS011;69053;57.338;18.700;2023-04-25T23:43:56;5.45;;;3.00;;
79583;SDS011;69053;57.338;18.700;2023-04-25T23:48:56;5.40;;;2.88;;
79583;SDS011;69053;57.338;18.700;2023-04-25T23:53:57;5.47;;;2.78;;
79583;SDS011;69053;57.338;18.700;2023-04-25T23:58:58;6.45;;;2.85;;
